Adco, Washington
Current Conditions -  °F | °C
As of 5:53 PM on Saturday 25 Oct 2014 (Local Time) from KEPH Reporting Station
Few Clouds Few Clouds  
Wind Chill: 52°   Ceiling: Unl
Heat Index: 52°   Visibility: 10mi
Dew Point: 49°   Wind: 5mph
Humidity: 89%   Direction: 20°NNE
Pressure: 29.46"   Gusts: NA
Location:  47.4314°N, 119.485°W
Report Text: KEPH 260053Z AUTO 02004KT 10SM FEW110 11/09 A2946 RMK AO2 RAE01 SLP978 P0000 T01110094
Loading
Personal Weather Stations






























Interactive Weather Map
Tropical Storm Tracking
New forecast layout! Learn more

10-Day Weather Forecast

Advertisements
Track Severe Weather on mobile